sensor_id;sensor_type;location;lat;lon;timestamp;temperature;humidity
13642;DHT22;6894;52.196;9.904;2022-12-20T00:01:06;6.10;99.90
13642;DHT22;6894;52.196;9.904;2022-12-20T00:03:33;6.60;99.90
13642;DHT22;6894;52.196;9.904;2022-12-20T00:06:00;6.60;99.90
13642;DHT22;6894;52.196;9.904;2022-12-20T00:08:29;6.70;99.90
13642;DHT22;6894;52.196;9.904;2022-12-20T00:10:58;6.60;99.90
13642;DHT22;6894;52.196;9.904;2022-12-20T00:13:25;6.60;99.90
13642;DHT22;6894;52.196;9.904;2022-12-20T00:16:02;6.60;99.90
13642;DHT22;6894;52.196;9.904;2022-12-20T00:18:29;6.60;99.90
13642;DHT22;6894;52.196;9.904;2022-12-20T00:20:57;6.60;99.90
13642;DHT22;6894;52.196;9.904;2022-12-20T00:23:24;6.60;99.90
13642;DHT22;6894;52.196;9.904;2022-12-20T00:25:52;6.70;99.90
13642;DHT22;6894;52.196;9.904;2022-12-20T00:28:18;6.60;99.90
13642;DHT22;6894;52.196;9.904;2022-12-20T00:30:45;6.60;99.90
13642;DHT22;6894;52.196;9.904;2022-12-20T00:33:12;6.70;99.90
13642;DHT22;6894;52.196;9.904;2022-12-20T00:35:41;6.80;99.90
13642;DHT22;6894;52.196;9.904;2022-12-20T00:38:08;6.80;99.90
13642;DHT22;6894;52.196;9.904;2022-12-20T00:40:34;6.80;99.90
13642;DHT22;6894;52.196;9.904;2022-12-20T00:43:02;6.90;99.90
13642;DHT22;6894;52.196;9.904;2022-12-20T00:45:29;6.90;99.90
13642;DHT22;6894;52.196;9.904;2022-12-20T00:47:56;7.40;99.90
13642;DHT22;6894;52.196;9.904;2022-12-20T00:50:23;7.10;99.90
13642;DHT22;6894;52.196;9.904;2022-12-20T00:52:50;7.20;99.90
13642;DHT22;6894;52.196;9.904;2022-12-20T00:55:16;7.20;99.90
13642;DHT22;6894;52.196;9.904;2022-12-20T00:57:43;7.30;99.90
13642;DHT22;6894;52.196;9.904;2022-12-20T01:00:12;7.30;99.90
13642;DHT22;6894;52.196;9.904;2022-12-20T01:02:39;7.30;99.90
13642;DHT22;6894;52.196;9.904;2022-12-20T01:05:07;7.30;99.90
13642;DHT22;6894;52.196;9.904;2022-12-20T01:07:34;7.20;99.90
13642;DHT22;6894;52.196;9.904;2022-12-20T01:10:00;7.20;99.90
13642;DHT22;6894;52.196;9.904;2022-12-20T01:12:27;7.30;99.90
13642;DHT22;6894;52.196;9.904;2022-12-20T01:14:54;7.40;99.90
13642;DHT22;6894;52.196;9.904;2022-12-20T01:17:22;7.50;99.90
13642;DHT22;6894;52.196;9.904;2022-12-20T01:19:49;7.50;99.90
13642;DHT22;6894;52.196;9.904;2022-12-20T01:22:15;7.50;99.90
13642;DHT22;6894;52.196;9.904;2022-12-20T01:24:42;7.50;99.90
13642;DHT22;6894;52.196;9.904;2022-12-20T01:27:09;7.60;99.90
13642;DHT22;6894;52.196;9.904;2022-12-20T01:29:36;7.50;99.90
13642;DHT22;6894;52.196;9.904;2022-12-20T01:32:02;7.40;99.90
13642;DHT22;6894;52.196;9.904;2022-12-20T01:34:31;7.50;99.90
13642;DHT22;6894;52.196;9.904;2022-12-20T01:36:57;7.40;99.90
13642;DHT22;6894;52.196;9.904;2022-12-20T01:39:25;7.40;99.90
13642;DHT22;6894;52.196;9.904;2022-12-20T01:41:51;7.30;99.90
13642;DHT22;6894;52.196;9.904;2022-12-20T01:44:56;7.30;99.90
13642;DHT22;6894;52.196;9.904;2022-12-20T01:47:24;7.20;99.90
13642;DHT22;6894;52.196;9.904;2022-12-20T01:49:55;7.10;99.90
13642;DHT22;6894;52.196;9.904;2022-12-20T01:52:27;7.10;99.90
13642;DHT22;6894;52.196;9.904;2022-12-20T01:54:56;7.10;99.90
13642;DHT22;6894;52.196;9.904;2022-12-20T01:57:30;7.20;99.90
13642;DHT22;6894;52.196;9.904;2022-12-20T01:59:58;7.30;99.90
13642;DHT22;6894;52.196;9.904;2022-12-20T02:02:25;7.40;99.90
13642;DHT22;6894;52.196;9.904;2022-12-20T02:04:54;7.50;99.90
13642;DHT22;6894;52.196;9.904;2022-12-20T02:07:24;7.60;99.90
13642;DHT22;6894;52.196;9.904;2022-12-20T02:09:52;7.70;99.90
13642;DHT22;6894;52.196;9.904;2022-12-20T02:12:23;7.80;99.90
13642;DHT22;6894;52.196;9.904;2022-12-20T02:15:04;8.00;99.90
13642;DHT22;6894;52.196;9.904;2022-12-20T02:17:44;8.10;99.90
13642;DHT22;6894;52.196;9.904;2022-12-20T02:26:31;8.40;99.90
13642;DHT22;6894;52.196;9.904;2022-12-20T02:29:12;8.40;99.90
13642;DHT22;6894;52.196;9.904;2022-12-20T02:31:46;8.50;99.90
13642;DHT22;6894;52.196;9.904;2022-12-20T02:34:15;8.50;99.90
13642;DHT22;6894;52.196;9.904;2022-12-20T02:36:43;8.50;99.90
13642;DHT22;6894;52.196;9.904;2022-12-20T02:39:11;8.60;99.90
13642;DHT22;6894;52.196;9.904;2022-12-20T02:41:42;8.60;99.90
13642;DHT22;6894;52.196;9.904;2022-12-20T02:44:17;8.60;99.90
13642;DHT22;6894;52.196;9.904;2022-12-20T02:47:07;8.60;99.90
13642;DHT22;6894;52.196;9.904;2022-12-20T02:49:37;8.60;99.90
13642;DHT22;6894;52.196;9.904;2022-12-20T02:52:07;8.70;99.90
13642;DHT22;6894;52.196;9.904;2022-12-20T02:54:35;8.80;99.90
13642;DHT22;6894;52.196;9.904;2022-12-20T02:57:07;8.80;99.90
13642;DHT22;6894;52.196;9.904;2022-12-20T02:59:40;8.90;99.90
13642;DHT22;6894;52.196;9.904;2022-12-20T03:02:10;8.90;99.90
13642;DHT22;6894;52.196;9.904;2022-12-20T03:04:39;8.90;99.90
13642;DHT22;6894;52.196;9.904;2022-12-20T03:07:08;8.90;99.90
13642;DHT22;6894;52.196;9.904;2022-12-20T03:09:39;8.90;99.90
13642;DHT22;6894;52.196;9.904;2022-12-20T03:12:08;9.00;99.90
13642;DHT22;6894;52.196;9.904;2022-12-20T03:14:36;9.00;99.90
13642;DHT22;6894;52.196;9.904;2022-12-20T03:17:03;9.10;99.90
13642;DHT22;6894;52.196;9.904;2022-12-20T03:19:31;9.10;99.90
13642;DHT22;6894;52.196;9.904;2022-12-20T03:21:58;9.00;99.90
13642;DHT22;6894;52.196;9.904;2022-12-20T03:24:25;8.90;99.90
13642;DHT22;6894;52.196;9.904;2022-12-20T03:26:52;8.90;99.90
13642;DHT22;6894;52.196;9.904;2022-12-20T03:29:18;8.70;99.90
13642;DHT22;6894;52.196;9.904;2022-12-20T03:31:45;8.70;99.90
13642;DHT22;6894;52.196;9.904;2022-12-20T03:34:12;8.70;99.90
13642;DHT22;6894;52.196;9.904;2022-12-20T03:36:41;8.70;99.90
13642;DHT22;6894;52.196;9.904;2022-12-20T03:39:07;8.60;99.90
13642;DHT22;6894;52.196;9.904;2022-12-20T03:41:34;8.60;99.90
13642;DHT22;6894;52.196;9.904;2022-12-20T03:44:01;8.60;99.90
13642;DHT22;6894;52.196;9.904;2022-12-20T03:46:28;8.70;99.90
13642;DHT22;6894;52.196;9.904;2022-12-20T03:48:54;8.70;99.90
13642;DHT22;6894;52.196;9.904;2022-12-20T03:51:21;8.80;99.90
13642;DHT22;6894;52.196;9.904;2022-12-20T03:53:49;8.90;99.90
13642;DHT22;6894;52.196;9.904;2022-12-20T03:56:16;9.00;99.90
13642;DHT22;6894;52.196;9.904;2022-12-20T03:58:43;8.90;99.90
13642;DHT22;6894;52.196;9.904;2022-12-20T04:01:21;8.90;99.90
13642;DHT22;6894;52.196;9.904;2022-12-20T04:03:48;8.90;99.90
13642;DHT22;6894;52.196;9.904;2022-12-20T04:06:16;8.90;99.90
13642;DHT22;6894;52.196;9.904;2022-12-20T04:08:43;8.90;99.90
13642;DHT22;6894;52.196;9.904;2022-12-20T04:11:12;8.90;99.90
13642;DHT22;6894;52.196;9.904;2022-12-20T04:13:42;8.80;99.90
13642;DHT22;6894;52.196;9.904;2022-12-20T04:16:10;8.80;99.90
13642;DHT22;6894;52.196;9.904;2022-12-20T04:18:37;8.70;99.90
13642;DHT22;6894;52.196;9.904;2022-12-20T04:21:04;8.70;99.90
13642;DHT22;6894;52.196;9.904;2022-12-20T04:23:32;8.70;99.90
13642;DHT22;6894;52.196;9.904;2022-12-20T04:25:58;8.60;99.90
13642;DHT22;6894;52.196;9.904;2022-12-20T04:28:27;8.60;99.90
13642;DHT22;6894;52.196;9.904;2022-12-20T04:30:53;8.50;99.90
13642;DHT22;6894;52.196;9.904;2022-12-20T04:33:20;8.70;99.90
13642;DHT22;6894;52.196;9.904;2022-12-20T04:35:49;8.70;99.90
13642;DHT22;6894;52.196;9.904;2022-12-20T04:38:17;8.70;99.90
13642;DHT22;6894;52.196;9.904;2022-12-20T04:40:44;8.70;99.90
13642;DHT22;6894;52.196;9.904;2022-12-20T04:43:10;8.70;99.90
13642;DHT22;6894;52.196;9.904;2022-12-20T04:45:39;8.80;99.90
13642;DHT22;6894;52.196;9.904;2022-12-20T04:48:05;8.90;99.90
13642;DHT22;6894;52.196;9.904;2022-12-20T04:50:32;9.00;99.90
13642;DHT22;6894;52.196;9.904;2022-12-20T04:52:59;9.10;99.90
13642;DHT22;6894;52.196;9.904;2022-12-20T04:55:43;9.10;99.90
13642;DHT22;6894;52.196;9.904;2022-12-20T04:58:09;9.10;99.90
13642;DHT22;6894;52.196;9.904;2022-12-20T05:00:36;9.20;99.90
13642;DHT22;6894;52.196;9.904;2022-12-20T05:03:04;9.30;99.90
13642;DHT22;6894;52.196;9.904;2022-12-20T05:05:31;9.30;99.90
13642;DHT22;6894;52.196;9.904;2022-12-20T05:07:59;9.30;99.90
13642;DHT22;6894;52.196;9.904;2022-12-20T05:10:25;9.30;99.90
13642;DHT22;6894;52.196;9.904;2022-12-20T05:12:52;9.30;99.90
13642;DHT22;6894;52.196;9.904;2022-12-20T05:15:19;9.30;99.90
13642;DHT22;6894;52.196;9.904;2022-12-20T05:17:46;9.40;99.90
13642;DHT22;6894;52.196;9.904;2022-12-20T05:20:14;9.40;99.90
13642;DHT22;6894;52.196;9.904;2022-12-20T05:22:41;9.50;99.90
13642;DHT22;6894;52.196;9.904;2022-12-20T05:25:25;9.50;99.90
13642;DHT22;6894;52.196;9.904;2022-12-20T05:28:09;9.50;99.90
13642;DHT22;6894;52.196;9.904;2022-12-20T05:30:36;9.60;99.90
13642;DHT22;6894;52.196;9.904;2022-12-20T05:33:03;9.60;99.90
13642;DHT22;6894;52.196;9.904;2022-12-20T05:35:31;9.60;99.90
13642;DHT22;6894;52.196;9.904;2022-12-20T05:37:58;9.60;99.90
13642;DHT22;6894;52.196;9.904;2022-12-20T05:40:25;9.60;99.90
13642;DHT22;6894;52.196;9.904;2022-12-20T05:42:53;9.70;99.90
13642;DHT22;6894;52.196;9.904;2022-12-20T05:45:19;9.70;99.90
13642;DHT22;6894;52.196;9.904;2022-12-20T05:47:46;9.70;99.90
13642;DHT22;6894;52.196;9.904;2022-12-20T05:50:13;9.60;99.90
13642;DHT22;6894;52.196;9.904;2022-12-20T05:52:43;9.70;99.90
13642;DHT22;6894;52.196;9.904;2022-12-20T05:55:09;9.70;99.90
13642;DHT22;6894;52.196;9.904;2022-12-20T05:57:36;9.60;99.90
13642;DHT22;6894;52.196;9.904;2022-12-20T06:00:04;9.70;99.90
13642;DHT22;6894;52.196;9.904;2022-12-20T06:02:31;9.70;99.90
13642;DHT22;6894;52.196;9.904;2022-12-20T06:04:58;9.60;99.90
13642;DHT22;6894;52.196;9.904;2022-12-20T06:07:25;9.60;99.90
13642;DHT22;6894;52.196;9.904;2022-12-20T06:09:54;9.60;99.90
13642;DHT22;6894;52.196;9.904;2022-12-20T06:12:21;9.60;99.90
13642;DHT22;6894;52.196;9.904;2022-12-20T06:14:48;9.70;99.90
13642;DHT22;6894;52.196;9.904;2022-12-20T06:17:15;9.70;99.90
13642;DHT22;6894;52.196;9.904;2022-12-20T06:19:43;9.60;99.90
13642;DHT22;6894;52.196;9.904;2022-12-20T06:22:10;9.60;99.90
13642;DHT22;6894;52.196;9.904;2022-12-20T06:24:38;9.60;99.90
13642;DHT22;6894;52.196;9.904;2022-12-20T06:27:06;9.60;99.90
13642;DHT22;6894;52.196;9.904;2022-12-20T06:29:33;9.60;99.90
13642;DHT22;6894;52.196;9.904;2022-12-20T06:32:02;9.60;99.90
13642;DHT22;6894;52.196;9.904;2022-12-20T06:34:30;9.60;99.90
13642;DHT22;6894;52.196;9.904;2022-12-20T06:36:56;9.60;99.90
13642;DHT22;6894;52.196;9.904;2022-12-20T06:39:23;9.60;99.90
13642;DHT22;6894;52.196;9.904;2022-12-20T06:41:50;9.50;99.90
13642;DHT22;6894;52.196;9.904;2022-12-20T06:44:18;9.50;99.90
13642;DHT22;6894;52.196;9.904;2022-12-20T06:46:45;9.50;99.90
13642;DHT22;6894;52.196;9.904;2022-12-20T06:49:12;9.50;99.90
13642;DHT22;6894;52.196;9.904;2022-12-20T06:51:38;9.40;99.90
13642;DHT22;6894;52.196;9.904;2022-12-20T06:54:05;9.40;99.90
13642;DHT22;6894;52.196;9.904;2022-12-20T06:56:32;9.40;99.90
13642;DHT22;6894;52.196;9.904;2022-12-20T06:58:59;9.40;99.90
13642;DHT22;6894;52.196;9.904;2022-12-20T07:01:27;9.30;99.90
13642;DHT22;6894;52.196;9.904;2022-12-20T07:03:53;9.30;99.90
13642;DHT22;6894;52.196;9.904;2022-12-20T07:06:20;9.30;99.90
13642;DHT22;6894;52.196;9.904;2022-12-20T07:08:47;9.30;99.90
13642;DHT22;6894;52.196;9.904;2022-12-20T07:11:13;9.40;99.90
13642;DHT22;6894;52.196;9.904;2022-12-20T07:13:40;9.30;99.90
13642;DHT22;6894;52.196;9.904;2022-12-20T07:16:07;9.40;99.90
13642;DHT22;6894;52.196;9.904;2022-12-20T07:18:35;9.30;99.90
13642;DHT22;6894;52.196;9.904;2022-12-20T07:21:03;9.30;99.90
13642;DHT22;6894;52.196;9.904;2022-12-20T07:23:31;9.40;99.90
13642;DHT22;6894;52.196;9.904;2022-12-20T07:25:59;9.30;99.90
13642;DHT22;6894;52.196;9.904;2022-12-20T07:28:26;9.40;99.90
13642;DHT22;6894;52.196;9.904;2022-12-20T07:30:53;9.20;99.90
13642;DHT22;6894;52.196;9.904;2022-12-20T07:33:20;9.40;99.90
13642;DHT22;6894;52.196;9.904;2022-12-20T07:35:48;9.40;99.90
13642;DHT22;6894;52.196;9.904;2022-12-20T07:38:15;9.50;99.90
13642;DHT22;6894;52.196;9.904;2022-12-20T07:40:42;9.50;99.90
13642;DHT22;6894;52.196;9.904;2022-12-20T07:43:09;9.50;99.90
13642;DHT22;6894;52.196;9.904;2022-12-20T07:45:36;9.60;99.90
13642;DHT22;6894;52.196;9.904;2022-12-20T07:48:03;9.50;99.90
13642;DHT22;6894;52.196;9.904;2022-12-20T07:50:30;9.60;99.90
13642;DHT22;6894;52.196;9.904;2022-12-20T07:52:59;9.50;99.90
13642;DHT22;6894;52.196;9.904;2022-12-20T07:55:26;9.50;99.90
13642;DHT22;6894;52.196;9.904;2022-12-20T07:57:57;9.50;99.90
13642;DHT22;6894;52.196;9.904;2022-12-20T08:00:26;9.50;99.90
13642;DHT22;6894;52.196;9.904;2022-12-20T08:02:57;9.50;99.90
13642;DHT22;6894;52.196;9.904;2022-12-20T08:05:25;9.60;99.90
13642;DHT22;6894;52.196;9.904;2022-12-20T08:07:52;9.60;99.90
13642;DHT22;6894;52.196;9.904;2022-12-20T08:10:23;9.60;99.90
13642;DHT22;6894;52.196;9.904;2022-12-20T08:12:50;9.60;99.90
13642;DHT22;6894;52.196;9.904;2022-12-20T08:15:17;9.70;99.90
13642;DHT22;6894;52.196;9.904;2022-12-20T08:17:46;9.70;99.90
13642;DHT22;6894;52.196;9.904;2022-12-20T08:20:13;9.70;99.90
13642;DHT22;6894;52.196;9.904;2022-12-20T08:22:40;9.70;99.90
13642;DHT22;6894;52.196;9.904;2022-12-20T08:25:08;9.80;99.90
13642;DHT22;6894;52.196;9.904;2022-12-20T08:27:37;9.90;99.90
13642;DHT22;6894;52.196;9.904;2022-12-20T08:30:05;9.90;99.90
13642;DHT22;6894;52.196;9.904;2022-12-20T08:32:32;9.90;99.90
13642;DHT22;6894;52.196;9.904;2022-12-20T08:35:00;9.90;99.90
13642;DHT22;6894;52.196;9.904;2022-12-20T08:37:27;10.00;99.90
13642;DHT22;6894;52.196;9.904;2022-12-20T08:39:54;9.90;99.90
13642;DHT22;6894;52.196;9.904;2022-12-20T08:42:20;10.00;99.90
13642;DHT22;6894;52.196;9.904;2022-12-20T08:44:49;10.00;99.90
13642;DHT22;6894;52.196;9.904;2022-12-20T08:47:15;10.10;99.90
13642;DHT22;6894;52.196;9.904;2022-12-20T08:49:42;10.10;99.90
13642;DHT22;6894;52.196;9.904;2022-12-20T08:52:09;10.10;99.90
13642;DHT22;6894;52.196;9.904;2022-12-20T08:54:36;10.20;99.90
13642;DHT22;6894;52.196;9.904;2022-12-20T08:57:03;10.20;99.90
13642;DHT22;6894;52.196;9.904;2022-12-20T08:59:29;10.20;99.90
13642;DHT22;6894;52.196;9.904;2022-12-20T09:01:57;10.20;99.90
13642;DHT22;6894;52.196;9.904;2022-12-20T09:04:24;10.30;99.90
13642;DHT22;6894;52.196;9.904;2022-12-20T09:06:51;10.30;99.90
13642;DHT22;6894;52.196;9.904;2022-12-20T09:09:18;10.30;99.90
13642;DHT22;6894;52.196;9.904;2022-12-20T09:11:44;10.40;99.90
13642;DHT22;6894;52.196;9.904;2022-12-20T09:14:11;10.40;99.90
13642;DHT22;6894;52.196;9.904;2022-12-20T09:16:38;10.40;99.70
13642;DHT22;6894;52.196;9.904;2022-12-20T09:19:06;10.40;99.90
13642;DHT22;6894;52.196;9.904;2022-12-20T09:21:33;10.40;99.90
13642;DHT22;6894;52.196;9.904;2022-12-20T09:24:00;10.40;97.10
13642;DHT22;6894;52.196;9.904;2022-12-20T09:26:27;10.50;93.30
13642;DHT22;6894;52.196;9.904;2022-12-20T09:28:55;10.50;80.50
13642;DHT22;6894;52.196;9.904;2022-12-20T09:31:23;10.50;60.70
13642;DHT22;6894;52.196;9.904;2022-12-20T09:33:52;10.60;57.50
13642;DHT22;6894;52.196;9.904;2022-12-20T09:36:22;10.50;46.30
13642;DHT22;6894;52.196;9.904;2022-12-20T09:38:50;10.50;55.40
13642;DHT22;6894;52.196;9.904;2022-12-20T09:41:26;10.60;29.60
13642;DHT22;6894;52.196;9.904;2022-12-20T09:43:54;10.70;27.40
13642;DHT22;6894;52.196;9.904;2022-12-20T09:46:23;10.70;1.50
13642;DHT22;6894;52.196;9.904;2022-12-20T09:48:50;10.70;1.00
13642;DHT22;6894;52.196;9.904;2022-12-20T09:51:33;10.80;1.00
13642;DHT22;6894;52.196;9.904;2022-12-20T09:54:11;10.80;1.00
13642;DHT22;6894;52.196;9.904;2022-12-20T09:56:43;10.80;1.00
13642;DHT22;6894;52.196;9.904;2022-12-20T09:59:13;10.80;1.00
13642;DHT22;6894;52.196;9.904;2022-12-20T10:01:44;10.90;1.00
13642;DHT22;6894;52.196;9.904;2022-12-20T10:04:19;10.90;1.00
13642;DHT22;6894;52.196;9.904;2022-12-20T10:06:55;11.00;1.00
13642;DHT22;6894;52.196;9.904;2022-12-20T10:09:46;11.00;1.00
13642;DHT22;6894;52.196;9.904;2022-12-20T10:12:22;11.10;1.00
13642;DHT22;6894;52.196;9.904;2022-12-20T10:15:03;11.10;1.00
13642;DHT22;6894;52.196;9.904;2022-12-20T10:17:45;11.20;1.00
13642;DHT22;6894;52.196;9.904;2022-12-20T10:20:40;11.20;1.00
13642;DHT22;6894;52.196;9.904;2022-12-20T10:23:16;11.20;1.00
13642;DHT22;6894;52.196;9.904;2022-12-20T10:25:48;11.20;1.00
13642;DHT22;6894;52.196;9.904;2022-12-20T10:28:16;11.30;1.00
13642;DHT22;6894;52.196;9.904;2022-12-20T10:30:45;11.40;1.00
13642;DHT22;6894;52.196;9.904;2022-12-20T10:33:17;11.30;1.00
13642;DHT22;6894;52.196;9.904;2022-12-20T10:35:45;11.40;1.00
13642;DHT22;6894;52.196;9.904;2022-12-20T10:38:14;11.40;1.00
13642;DHT22;6894;52.196;9.904;2022-12-20T10:40:44;11.50;1.00
13642;DHT22;6894;52.196;9.904;2022-12-20T10:43:15;11.50;1.00
13642;DHT22;6894;52.196;9.904;2022-12-20T10:45:54;11.50;1.00
13642;DHT22;6894;52.196;9.904;2022-12-20T10:48:28;11.50;1.00
13642;DHT22;6894;52.196;9.904;2022-12-20T10:50:57;11.50;1.00
13642;DHT22;6894;52.196;9.904;2022-12-20T10:53:26;11.40;1.00
13642;DHT22;6894;52.196;9.904;2022-12-20T10:55:55;11.50;1.00
13642;DHT22;6894;52.196;9.904;2022-12-20T10:58:34;11.50;1.00
13642;DHT22;6894;52.196;9.904;2022-12-20T11:01:10;11.50;1.00
13642;DHT22;6894;52.196;9.904;2022-12-20T11:03:53;11.60;1.00
13642;DHT22;6894;52.196;9.904;2022-12-20T11:06:22;11.60;1.00
13642;DHT22;6894;52.196;9.904;2022-12-20T11:08:50;11.60;1.00
13642;DHT22;6894;52.196;9.904;2022-12-20T11:11:18;11.60;1.00
13642;DHT22;6894;52.196;9.904;2022-12-20T11:13:47;11.90;1.00
13642;DHT22;6894;52.196;9.904;2022-12-20T11:16:23;12.00;1.00
13642;DHT22;6894;52.196;9.904;2022-12-20T11:19:02;12.10;1.00
13642;DHT22;6894;52.196;9.904;2022-12-20T11:21:41;12.30;1.00
13642;DHT22;6894;52.196;9.904;2022-12-20T11:24:16;12.70;1.00
13642;DHT22;6894;52.196;9.904;2022-12-20T11:27:00;12.90;99.90
13642;DHT22;6894;52.196;9.904;2022-12-20T11:29:56;12.80;1.00
13642;DHT22;6894;52.196;9.904;2022-12-20T11:32:44;12.80;99.90
13642;DHT22;6894;52.196;9.904;2022-12-20T11:35:19;12.70;1.00
13642;DHT22;6894;52.196;9.904;2022-12-20T11:37:51;12.70;99.90
13642;DHT22;6894;52.196;9.904;2022-12-20T11:40:30;12.70;1.00
13642;DHT22;6894;52.196;9.904;2022-12-20T11:43:09;12.60;99.90
13642;DHT22;6894;52.196;9.904;2022-12-20T11:45:47;12.50;1.00
13642;DHT22;6894;52.196;9.904;2022-12-20T11:48:34;12.60;99.90
13642;DHT22;6894;52.196;9.904;2022-12-20T11:51:08;12.50;99.90
13642;DHT22;6894;52.196;9.904;2022-12-20T11:53:47;12.50;1.00
13642;DHT22;6894;52.196;9.904;2022-12-20T11:56:21;12.40;1.00
13642;DHT22;6894;52.196;9.904;2022-12-20T11:58:55;12.40;1.00
13642;DHT22;6894;52.196;9.904;2022-12-20T12:01:25;12.20;99.90
13642;DHT22;6894;52.196;9.904;2022-12-20T12:04:03;12.10;1.00
13642;DHT22;6894;52.196;9.904;2022-12-20T12:06:34;12.00;1.00
13642;DHT22;6894;52.196;9.904;2022-12-20T12:09:12;12.00;99.90
13642;DHT22;6894;52.196;9.904;2022-12-20T12:11:46;11.90;99.90
13642;DHT22;6894;52.196;9.904;2022-12-20T12:14:21;11.90;99.90
13642;DHT22;6894;52.196;9.904;2022-12-20T12:16:57;11.80;99.90
13642;DHT22;6894;52.196;9.904;2022-12-20T12:19:25;11.80;1.00
13642;DHT22;6894;52.196;9.904;2022-12-20T12:21:58;11.70;1.00
13642;DHT22;6894;52.196;9.904;2022-12-20T12:24:30;11.70;1.00
13642;DHT22;6894;52.196;9.904;2022-12-20T12:27:00;11.70;1.00
13642;DHT22;6894;52.196;9.904;2022-12-20T12:29:28;11.70;1.00
13642;DHT22;6894;52.196;9.904;2022-12-20T12:31:59;11.70;1.00
13642;DHT22;6894;52.196;9.904;2022-12-20T12:34:35;11.70;1.00
13642;DHT22;6894;52.196;9.904;2022-12-20T12:37:34;11.80;1.00
13642;DHT22;6894;52.196;9.904;2022-12-20T12:45:58;12.00;1.00
13642;DHT22;6894;52.196;9.904;2022-12-20T12:48:33;12.30;1.00
13642;DHT22;6894;52.196;9.904;2022-12-20T12:51:02;12.90;1.00
13642;DHT22;6894;52.196;9.904;2022-12-20T12:53:34;12.60;1.00
13642;DHT22;6894;52.196;9.904;2022-12-20T12:56:36;12.40;99.90
13642;DHT22;6894;52.196;9.904;2022-12-20T12:59:22;12.20;67.70
13642;DHT22;6894;52.196;9.904;2022-12-20T13:01:51;12.10;99.90
13642;DHT22;6894;52.196;9.904;2022-12-20T13:04:24;12.00;1.00
13642;DHT22;6894;52.196;9.904;2022-12-20T13:06:58;12.00;1.00
13642;DHT22;6894;52.196;9.904;2022-12-20T13:09:43;12.00;1.00
13642;DHT22;6894;52.196;9.904;2022-12-20T13:15:52;11.90;1.00
13642;DHT22;6894;52.196;9.904;2022-12-20T13:18:29;11.80;1.00
13642;DHT22;6894;52.196;9.904;2022-12-20T13:21:16;11.80;24.60
13642;DHT22;6894;52.196;9.904;2022-12-20T13:23:43;11.70;99.90
13642;DHT22;6894;52.196;9.904;2022-12-20T13:26:48;11.80;99.90
13642;DHT22;6894;52.196;9.904;2022-12-20T13:29:24;11.80;99.90
13642;DHT22;6894;52.196;9.904;2022-12-20T13:31:52;11.70;99.90
13642;DHT22;6894;52.196;9.904;2022-12-20T13:34:39;11.70;99.90
13642;DHT22;6894;52.196;9.904;2022-12-20T13:37:26;11.70;99.90
13642;DHT22;6894;52.196;9.904;2022-12-20T13:39:54;11.70;99.90
13642;DHT22;6894;52.196;9.904;2022-12-20T13:42:33;11.70;1.00
13642;DHT22;6894;52.196;9.904;2022-12-20T13:45:04;11.70;99.90
13642;DHT22;6894;52.196;9.904;2022-12-20T13:47:44;11.70;99.90
13642;DHT22;6894;52.196;9.904;2022-12-20T13:50:29;11.60;1.00
13642;DHT22;6894;52.196;9.904;2022-12-20T13:52:57;11.60;1.00
13642;DHT22;6894;52.196;9.904;2022-12-20T13:55:30;11.60;1.00
13642;DHT22;6894;52.196;9.904;2022-12-20T13:58:09;11.60;1.00
13642;DHT22;6894;52.196;9.904;2022-12-20T14:00:36;11.50;1.00
13642;DHT22;6894;52.196;9.904;2022-12-20T14:03:18;11.50;1.00
13642;DHT22;6894;52.196;9.904;2022-12-20T14:05:45;11.60;1.00
13642;DHT22;6894;52.196;9.904;2022-12-20T14:08:14;11.60;1.00
13642;DHT22;6894;52.196;9.904;2022-12-20T14:10:42;11.60;1.00
13642;DHT22;6894;52.196;9.904;2022-12-20T14:13:19;11.60;1.00
13642;DHT22;6894;52.196;9.904;2022-12-20T14:15:46;11.70;1.00
13642;DHT22;6894;52.196;9.904;2022-12-20T14:18:18;11.70;1.00
13642;DHT22;6894;52.196;9.904;2022-12-20T14:20:47;11.70;1.00
13642;DHT22;6894;52.196;9.904;2022-12-20T14:23:17;11.70;1.00
13642;DHT22;6894;52.196;9.904;2022-12-20T14:25:48;11.70;1.00
13642;DHT22;6894;52.196;9.904;2022-12-20T14:28:23;11.80;1.00
13642;DHT22;6894;52.196;9.904;2022-12-20T14:30:51;11.70;99.90
13642;DHT22;6894;52.196;9.904;2022-12-20T14:33:26;11.70;99.90
13642;DHT22;6894;52.196;9.904;2022-12-20T14:35:54;11.70;99.90
13642;DHT22;6894;52.196;9.904;2022-12-20T14:38:23;11.80;99.90
13642;DHT22;6894;52.196;9.904;2022-12-20T14:40:50;11.80;99.90
13642;DHT22;6894;52.196;9.904;2022-12-20T14:43:26;11.80;99.90
13642;DHT22;6894;52.196;9.904;2022-12-20T14:46:14;11.80;99.90
13642;DHT22;6894;52.196;9.904;2022-12-20T14:48:43;11.70;99.90
13642;DHT22;6894;52.196;9.904;2022-12-20T14:51:11;11.70;99.90
13642;DHT22;6894;52.196;9.904;2022-12-20T14:53:39;11.70;1.00
13642;DHT22;6894;52.196;9.904;2022-12-20T14:56:13;11.60;1.00
13642;DHT22;6894;52.196;9.904;2022-12-20T14:58:42;11.70;1.00
13642;DHT22;6894;52.196;9.904;2022-12-20T15:01:20;11.60;1.00
13642;DHT22;6894;52.196;9.904;2022-12-20T15:03:49;11.60;1.00
13642;DHT22;6894;52.196;9.904;2022-12-20T15:06:31;11.60;1.00
13642;DHT22;6894;52.196;9.904;2022-12-20T15:08:59;11.60;1.00
13642;DHT22;6894;52.196;9.904;2022-12-20T15:11:26;11.70;1.00
13642;DHT22;6894;52.196;9.904;2022-12-20T15:13:53;11.60;1.00
13642;DHT22;6894;52.196;9.904;2022-12-20T15:16:22;11.70;1.00
13642;DHT22;6894;52.196;9.904;2022-12-20T15:18:52;11.60;1.00
13642;DHT22;6894;52.196;9.904;2022-12-20T15:21:26;11.60;1.00
13642;DHT22;6894;52.196;9.904;2022-12-20T15:23:54;11.60;1.00
13642;DHT22;6894;52.196;9.904;2022-12-20T15:26:23;11.60;1.00
13642;DHT22;6894;52.196;9.904;2022-12-20T15:28:51;11.60;1.00
13642;DHT22;6894;52.196;9.904;2022-12-20T15:31:20;11.60;1.00
13642;DHT22;6894;52.196;9.904;2022-12-20T15:33:50;11.60;1.00
13642;DHT22;6894;52.196;9.904;2022-12-20T15:36:20;11.50;1.00
13642;DHT22;6894;52.196;9.904;2022-12-20T15:38:48;11.50;1.00
13642;DHT22;6894;52.196;9.904;2022-12-20T15:41:18;11.50;17.40
13642;DHT22;6894;52.196;9.904;2022-12-20T15:43:46;11.50;90.70
13642;DHT22;6894;52.196;9.904;2022-12-20T15:46:15;11.40;99.90
13642;DHT22;6894;52.196;9.904;2022-12-20T15:48:42;11.50;99.90
13642;DHT22;6894;52.196;9.904;2022-12-20T15:51:15;11.40;99.90
13642;DHT22;6894;52.196;9.904;2022-12-20T15:53:43;11.40;99.90
13642;DHT22;6894;52.196;9.904;2022-12-20T15:56:16;11.40;99.90
13642;DHT22;6894;52.196;9.904;2022-12-20T15:58:44;11.40;99.90
13642;DHT22;6894;52.196;9.904;2022-12-20T16:01:14;11.40;99.90
13642;DHT22;6894;52.196;9.904;2022-12-20T16:03:44;11.50;99.90
13642;DHT22;6894;52.196;9.904;2022-12-20T16:06:12;11.50;99.90
13642;DHT22;6894;52.196;9.904;2022-12-20T16:08:39;11.50;99.90
13642;DHT22;6894;52.196;9.904;2022-12-20T16:11:16;11.50;99.90
13642;DHT22;6894;52.196;9.904;2022-12-20T16:13:45;11.60;99.90
13642;DHT22;6894;52.196;9.904;2022-12-20T16:16:14;11.60;99.90
13642;DHT22;6894;52.196;9.904;2022-12-20T16:18:42;11.60;99.90
13642;DHT22;6894;52.196;9.904;2022-12-20T16:21:15;11.50;99.90
13642;DHT22;6894;52.196;9.904;2022-12-20T16:23:43;11.50;99.90
13642;DHT22;6894;52.196;9.904;2022-12-20T16:26:12;11.50;99.90
13642;DHT22;6894;52.196;9.904;2022-12-20T16:28:39;11.50;99.90
13642;DHT22;6894;52.196;9.904;2022-12-20T16:31:22;11.50;99.90
13642;DHT22;6894;52.196;9.904;2022-12-20T16:33:49;11.60;99.90